Time;durP1;ratioP1;P1;durP2;ratioP2;P2;SDS_P1;SDS_P2;PMS_P1;PMS_P2;Temp;Humidity;BMP_temperature;BMP_pressure;BME280_temperature;BME280_humidity;BME280_pressure;Samples;Min_cycle;Max_cycle;Signal;HPM_P1;HPM_P2
2020/12/31 00:00:07;;;;;;;8.07;5.77;;;6.20;90.10;;;;;;5101041;28;20443;-80
2020/12/31 00:02:33;;;;;;;11.23;5.43;;;6.20;90.20;;;;;;5101337;28;20446;-80
2020/12/31 00:04:59;;;;;;;6.43;5.90;;;6.20;90.30;;;;;;5100304;28;20485;-80
2020/12/31 00:07:26;;;;;;;6.27;5.77;;;6.20;90.40;;;;;;5098291;28;20487;-80
2020/12/31 00:09:53;;;;;;;7.90;6.00;;;6.20;90.40;;;;;;5099450;28;20432;-80
2020/12/31 00:12:19;;;;;;;9.97;6.73;;;6.20;90.50;;;;;;5100796;28;20436;-80
2020/12/31 00:14:45;;;;;;;8.80;6.77;;;6.20;90.50;;;;;;5100077;28;20815;-80
2020/12/31 00:17:11;;;;;;;8.90;7.80;;;6.20;90.50;;;;;;5099730;28;20462;-80
2020/12/31 00:19:38;;;;;;;10.50;7.03;;;6.20;90.60;;;;;;5100028;28;20818;-80
2020/12/31 00:22:04;;;;;;;8.23;7.30;;;6.20;90.80;;;;;;5100750;28;20444;-80
2020/12/31 00:24:30;;;;;;;7.93;5.60;;;6.20;90.80;;;;;;5100875;28;20444;-79
2020/12/31 00:26:57;;;;;;;7.90;7.13;;;6.20;90.70;;;;;;5100725;28;20532;-80
2020/12/31 00:29:23;;;;;;;9.17;6.43;;;6.20;90.60;;;;;;5100605;28;20447;-80
2020/12/31 00:31:49;;;;;;;8.37;6.47;;;6.20;90.60;;;;;;5101133;28;20428;-81
2020/12/31 00:34:16;;;;;;;10.87;7.30;;;6.20;90.60;;;;;;5100447;28;20805;-80
2020/12/31 00:36:42;;;;;;;7.27;6.50;;;6.20;90.70;;;;;;5100235;28;20468;-79
2020/12/31 00:39:08;;;;;;;7.53;6.27;;;6.20;90.70;;;;;;5100905;28;20459;-79
2020/12/31 00:41:34;;;;;;;7.47;6.70;;;6.20;90.70;;;;;;5100259;28;20448;-80
2020/12/31 00:44:01;;;;;;;6.60;5.90;;;6.20;90.70;;;;;;5100733;28;20505;-79
2020/12/31 00:46:28;;;;;;;7.67;5.90;;;6.20;90.50;;;;;;5100037;28;20444;-80
2020/12/31 00:48:54;;;;;;;8.90;6.77;;;6.10;90.50;;;;;;5100232;28;20447;-79
2020/12/31 00:51:20;;;;;;;6.83;6.00;;;6.10;90.50;;;;;;5099955;28;20992;-79
2020/12/31 00:53:46;;;;;;;8.20;6.63;;;6.10;90.60;;;;;;5100286;28;20456;-79
2020/12/31 00:56:12;;;;;;;7.23;6.53;;;6.10;90.60;;;;;;5100722;28;20447;-79
2020/12/31 00:58:39;;;;;;;7.53;6.50;;;6.10;90.50;;;;;;5100779;28;20460;-80
2020/12/31 01:01:06;;;;;;;10.93;6.53;;;6.10;90.50;;;;;;5100838;28;20466;-79
2020/12/31 01:03:32;;;;;;;7.80;7.00;;;6.10;90.40;;;;;;5100067;28;20945;-79
2020/12/31 01:05:59;;;;;;;7.40;6.60;;;6.00;90.20;;;;;;5100779;28;20432;-79
2020/12/31 01:08:26;;;;;;;9.63;7.30;;;6.00;90.20;;;;;;5100353;28;20495;-79
2020/12/31 01:10:52;;;;;;;8.80;7.43;;;6.00;90.30;;;;;;5100604;28;20444;-79
2020/12/31 01:13:18;;;;;;;7.80;6.40;;;6.00;90.30;;;;;;5100417;28;20459;-79
2020/12/31 01:15:44;;;;;;;8.50;7.23;;;5.90;90.30;;;;;;5100025;28;20447;-79
2020/12/31 01:18:11;;;;;;;10.40;7.57;;;5.90;90.40;;;;;;5101054;28;20460;-79
2020/12/31 01:20:39;;;;;;;9.73;7.97;;;5.90;90.40;;;;;;5099450;28;20440;-79
2020/12/31 01:23:05;;;;;;;8.93;8.03;;;5.90;90.30;;;;;;5099107;28;20949;-79
2020/12/31 01:25:31;;;;;;;8.60;7.70;;;5.90;90.40;;;;;;5100195;28;20443;-79
2020/12/31 01:27:58;;;;;;;13.33;8.47;;;5.90;90.20;;;;;;5099461;28;20482;-78
2020/12/31 01:30:24;;;;;;;11.23;8.10;;;5.90;90.40;;;;;;5100404;28;20443;-79
2020/12/31 01:32:50;;;;;;;9.43;6.80;;;5.90;90.40;;;;;;5099580;28;20987;-79
2020/12/31 01:35:17;;;;;;;12.90;7.40;;;5.90;90.40;;;;;;5099553;28;20505;-79
2020/12/31 01:37:43;;;;;;;9.83;7.33;;;5.90;90.40;;;;;;5099171;28;20468;-78
2020/12/31 01:40:10;;;;;;;7.80;6.97;;;6.00;90.40;;;;;;5099157;28;20950;-79
2020/12/31 01:42:39;;;;;;;9.07;6.97;;;6.00;90.40;;;;;;5099270;28;20444;-78
2020/12/31 01:45:05;;;;;;;8.43;7.00;;;6.00;90.30;;;;;;5099668;28;20464;-79
2020/12/31 01:47:31;;;;;;;12.27;7.40;;;6.00;90.20;;;;;;5099438;28;20476;-78
2020/12/31 01:49:58;;;;;;;9.63;6.77;;;6.00;90.30;;;;;;5099206;28;20470;-78
2020/12/31 01:52:26;;;;;;;6.83;6.13;;;6.00;90.00;;;;;;5098552;28;20493;-78
2020/12/31 01:54:52;;;;;;;10.00;6.63;;;6.00;90.10;;;;;;5098470;28;20486;-79
2020/12/31 01:57:18;;;;;;;7.03;6.33;;;6.10;90.00;;;;;;5099309;28;20459;-78
2020/12/31 01:59:45;;;;;;;11.37;7.40;;;6.10;90.00;;;;;;5098600;28;20443;-78
2020/12/31 02:02:11;;;;;;;9.30;6.47;;;6.10;90.00;;;;;;5098790;28;20448;-78
2020/12/31 02:04:42;;;;;;;7.70;6.30;;;6.10;89.90;;;;;;5098403;28;20466;-79
2020/12/31 02:07:08;;;;;;;13.30;7.80;;;6.10;90.30;;;;;;5098839;28;20480;-78
2020/12/31 02:09:35;;;;;;;10.10;7.93;;;6.20;89.90;;;;;;5099066;28;20444;-78
2020/12/31 02:12:05;;;;;;;7.70;6.87;;;6.20;89.80;;;;;;5099351;28;20454;-79
2020/12/31 02:14:32;;;;;;;8.50;7.63;;;6.20;89.90;;;;;;5098446;28;20925;-79
2020/12/31 02:16:58;;;;;;;9.43;7.20;;;6.20;89.60;;;;;;5098152;28;20455;-79
2020/12/31 02:19:25;;;;;;;8.97;6.70;;;6.10;89.60;;;;;;5097867;28;20451;-79
2020/12/31 02:21:53;;;;;;;10.10;6.43;;;6.10;89.80;;;;;;5098042;28;20444;-79
2020/12/31 02:24:20;;;;;;;8.73;6.70;;;6.10;90.00;;;;;;5098302;28;20493;-80
2020/12/31 02:26:47;;;;;;;6.97;4.90;;;6.10;90.20;;;;;;5098037;28;20459;-79
2020/12/31 02:29:15;;;;;;;11.77;5.40;;;6.10;90.30;;;;;;5098272;28;20946;-79
2020/12/31 02:31:43;;;;;;;7.47;5.83;;;6.00;90.50;;;;;;5097447;28;20448;-79
2020/12/31 02:34:10;;;;;;;7.47;5.27;;;6.10;90.70;;;;;;5098175;28;20428;-79
2020/12/31 02:36:38;;;;;;;7.03;5.57;;;6.10;90.60;;;;;;5098100;28;20452;-79
2020/12/31 02:39:07;;;;;;;10.57;6.00;;;6.10;90.60;;;;;;5097871;28;20448;-79
2020/12/31 02:41:33;;;;;;;7.90;6.60;;;6.10;90.60;;;;;;5097788;28;20447;-80
2020/12/31 02:43:59;;;;;;;8.00;6.50;;;6.10;90.50;;;;;;5098040;28;20456;-80
2020/12/31 02:46:26;;;;;;;8.43;7.50;;;6.10;90.60;;;;;;5097883;28;20443;-79
2020/12/31 02:48:52;;;;;;;10.80;6.17;;;6.10;90.60;;;;;;5097313;28;20486;-80
2020/12/31 02:51:19;;;;;;;8.47;5.67;;;6.10;90.70;;;;;;5096700;28;20445;-79
2020/12/31 02:53:46;;;;;;;7.70;5.50;;;6.10;91.10;;;;;;5097163;28;20440;-79
2020/12/31 02:56:14;;;;;;;8.50;5.80;;;6.10;90.90;;;;;;5096354;28;20440;-79
2020/12/31 02:58:41;;;;;;;10.17;5.80;;;6.10;91.00;;;;;;5096412;28;20464;-79
2020/12/31 03:01:08;;;;;;;6.67;5.90;;;6.10;91.10;;;;;;5097739;28;20455;-79
2020/12/31 03:03:34;;;;;;;5.80;4.80;;;6.10;91.20;;;;;;5097361;28;20451;-79
2020/12/31 03:06:01;;;;;;;6.90;5.80;;;6.10;91.20;;;;;;5102396;28;20432;-79
2020/12/31 03:08:27;;;;;;;9.30;6.10;;;6.10;91.20;;;;;;5101235;28;20487;-80
2020/12/31 03:10:54;;;;;;;7.00;5.67;;;6.10;91.30;;;;;;5100707;28;20444;-79
2020/12/31 03:13:23;;;;;;;10.80;6.43;;;6.20;91.30;;;;;;5100738;28;20450;-80
2020/12/31 03:15:50;;;;;;;7.40;5.70;;;6.20;91.30;;;;;;5100731;28;20439;-80
2020/12/31 03:18:16;;;;;;;6.00;5.40;;;6.20;91.40;;;;;;5099925;28;20508;-79
2020/12/31 03:20:44;;;;;;;7.20;5.60;;;6.20;91.40;;;;;;5099941;28;20813;-80
2020/12/31 03:23:11;;;;;;;7.30;6.17;;;6.20;91.40;;;;;;5100170;28;20451;-79
2020/12/31 03:25:38;;;;;;;6.37;4.77;;;6.20;91.50;;;;;;5099482;28;20953;-80
2020/12/31 03:28:04;;;;;;;5.60;4.20;;;6.20;91.50;;;;;;5099842;28;20483;-79
2020/12/31 03:30:31;;;;;;;4.57;3.33;;;6.10;91.90;;;;;;5099383;28;20929;-79
2020/12/31 03:32:57;;;;;;;7.80;3.50;;;6.10;91.60;;;;;;5099224;28;20516;-80
2020/12/31 03:35:24;;;;;;;2.97;2.77;;;6.10;91.60;;;;;;5098930;28;20455;-79
2020/12/31 03:37:50;;;;;;;2.60;2.40;;;6.10;91.70;;;;;;5098678;28;20456;-80
2020/12/31 03:40:16;;;;;;;3.50;2.93;;;6.10;91.80;;;;;;5097838;28;20941;-79
2020/12/31 03:42:43;;;;;;;3.20;2.90;;;6.00;91.80;;;;;;5098171;28;20478;-80
2020/12/31 03:45:09;;;;;;;3.57;2.93;;;6.00;91.90;;;;;;5097849;28;20542;-79
2020/12/31 03:47:36;;;;;;;2.70;2.50;;;6.00;92.00;;;;;;5098567;28;20506;-79
2020/12/31 03:50:03;;;;;;;3.30;2.67;;;6.00;92.10;;;;;;5097686;28;20451;-80
2020/12/31 03:52:29;;;;;;;3.60;3.00;;;6.00;92.10;;;;;;5099223;28;20444;-79
2020/12/31 03:54:55;;;;;;;3.73;2.60;;;5.90;92.20;;;;;;5098231;28;20448;-80
2020/12/31 03:57:21;;;;;;;4.23;2.80;;;6.00;92.30;;;;;;5098954;28;20521;-79
2020/12/31 03:59:48;;;;;;;4.20;3.47;;;5.90;92.30;;;;;;5098247;28;20443;-79
2020/12/31 04:02:14;;;;;;;4.50;3.60;;;5.90;92.30;;;;;;5098563;28;20470;-79
2020/12/31 04:04:41;;;;;;;4.10;3.70;;;5.90;92.40;;;;;;5097866;28;20459;-79
2020/12/31 04:07:07;;;;;;;4.17;3.77;;;5.90;92.50;;;;;;5097980;28;20495;-79
2020/12/31 04:09:33;;;;;;;4.03;3.63;;;5.90;92.60;;;;;;5098380;28;20452;-79
2020/12/31 04:12:00;;;;;;;4.80;3.67;;;5.90;92.60;;;;;;5098106;28;20455;-80
2020/12/31 04:14:26;;;;;;;4.03;3.40;;;5.90;92.70;;;;;;5096645;28;20448;-80
2020/12/31 04:16:52;;;;;;;5.87;5.13;;;5.90;92.70;;;;;;5097724;28;20463;-79
2020/12/31 04:19:18;;;;;;;5.80;4.47;;;5.90;92.70;;;;;;5097883;28;20444;-80
2020/12/31 04:21:45;;;;;;;4.53;3.40;;;5.90;92.80;;;;;;5097738;28;20443;-79
2020/12/31 04:24:11;;;;;;;5.03;4.30;;;5.90;92.80;;;;;;5097931;28;20500;-80
2020/12/31 04:26:38;;;;;;;6.10;4.03;;;5.90;92.90;;;;;;5097400;28;20435;-79
2020/12/31 04:29:04;;;;;;;5.10;4.60;;;5.90;92.90;;;;;;5097132;28;20479;-80
2020/12/31 04:31:30;;;;;;;5.80;4.17;;;5.90;92.90;;;;;;5097530;28;20447;-79
2020/12/31 04:33:56;;;;;;;8.13;4.83;;;5.90;92.90;;;;;;5097328;28;20497;-79
2020/12/31 04:36:23;;;;;;;5.40;4.43;;;5.90;93.00;;;;;;5097632;28;20805;-79
2020/12/31 04:38:50;;;;;;;6.13;5.53;;;5.90;93.10;;;;;;5097871;28;20451;-79
2020/12/31 04:41:16;;;;;;;6.60;5.70;;;5.90;93.10;;;;;;5097543;28;20444;-80
2020/12/31 04:43:43;;;;;;;5.97;4.90;;;5.80;93.10;;;;;;5097722;28;20899;-79
2020/12/31 04:46:11;;;;;;;7.87;5.20;;;5.80;93.20;;;;;;5097384;28;20941;-80
2020/12/31 04:48:40;;;;;;;6.60;5.90;;;5.80;93.30;;;;;;5097150;28;20483;-80
2020/12/31 04:51:09;;;;;;;6.47;5.40;;;5.70;93.20;;;;;;5096799;28;20451;-79
2020/12/31 04:53:35;;;;;;;7.27;6.10;;;5.70;93.30;;;;;;5095751;28;20945;-79
2020/12/31 04:56:03;;;;;;;6.20;5.60;;;5.70;93.40;;;;;;5096809;28;20447;-79
2020/12/31 04:58:30;;;;;;;6.17;5.57;;;5.70;93.40;;;;;;5096427;28;20468;-79
2020/12/31 05:00:56;;;;;;;6.03;5.37;;;5.70;93.50;;;;;;5095948;28;20794;-80
2020/12/31 05:03:22;;;;;;;7.03;6.30;;;5.70;93.50;;;;;;5095652;28;20436;-79
2020/12/31 05:05:56;;;;;;;7.83;5.60;;;5.70;93.50;;;;;;5096204;28;20752;-80
2020/12/31 05:08:26;;;;;;;5.90;5.17;;;5.70;93.50;;;;;;5096251;28;20492;-80
2020/12/31 05:10:53;;;;;;;8.20;5.97;;;5.80;93.60;;;;;;5096129;28;20443;-79
2020/12/31 05:13:20;;;;;;;5.67;4.80;;;5.70;93.40;;;;;;5095887;28;20450;-79
2020/12/31 05:15:47;;;;;;;8.67;5.20;;;5.70;93.50;;;;;;5095636;28;20937;-79
2020/12/31 05:18:21;;;;;;;6.20;5.47;;;5.70;93.50;;;;;;5095808;28;20464;-79
2020/12/31 05:20:48;;;;;;;5.23;4.73;;;5.70;93.60;;;;;;5095396;28;20444;-79
2020/12/31 05:23:15;;;;;;;8.17;5.50;;;5.70;93.60;;;;;;5095654;28;20452;-79
2020/12/31 05:25:42;;;;;;;5.90;4.80;;;5.70;93.60;;;;;;5095131;28;20791;-79
2020/12/31 05:28:27;;;;;;;8.10;5.63;;;5.70;93.60;;;;;;5095555;28;20479;-79
2020/12/31 05:30:54;;;;;;;6.30;4.90;;;5.80;93.60;;;;;;5096024;28;20444;-79
2020/12/31 05:33:25;;;;;;;7.30;5.30;;;5.70;93.60;;;;;;5095937;28;20444;-79
2020/12/31 05:35:52;;;;;;;6.33;5.73;;;5.70;93.50;;;;;;5095522;28;20439;-79
2020/12/31 05:38:19;;;;;;;6.30;5.70;;;5.70;93.50;;;;;;5095605;28;20456;-79
2020/12/31 05:40:58;;;;;;;7.77;6.77;;;5.70;93.60;;;;;;5095486;28;20813;-80
2020/12/31 05:43:25;;;;;;;6.83;6.13;;;5.70;93.60;;;;;;5096010;28;20756;-79
2020/12/31 05:46:05;;;;;;;6.70;6.00;;;5.70;93.60;;;;;;5095343;28;20837;-80
2020/12/31 05:48:31;;;;;;;6.50;5.80;;;5.70;93.60;;;;;;5095226;28;20471;-79
2020/12/31 05:50:57;;;;;;;5.43;4.90;;;5.70;93.60;;;;;;5095264;28;20440;-79
2020/12/31 05:53:24;;;;;;;7.47;6.20;;;5.80;93.60;;;;;;5095654;28;20448;-79
2020/12/31 05:55:54;;;;;;;9.37;6.00;;;5.70;93.60;;;;;;5095292;28;20447;-80
2020/12/31 05:58:24;;;;;;;6.63;5.97;;;5.80;93.70;;;;;;5095908;28;20542;-79
2020/12/31 06:01:02;;;;;;;5.47;4.97;;;5.70;93.60;;;;;;5094711;28;20509;-79
2020/12/31 06:03:36;;;;;;;9.90;5.10;;;5.70;93.60;;;;;;5095227;28;20466;-79
2020/12/31 06:06:06;;;;;;;5.40;4.10;;;5.70;93.60;;;;;;5094633;28;20817;-80
2020/12/31 06:08:33;;;;;;;4.43;4.03;;;5.60;93.60;;;;;;5094692;28;20567;-79
2020/12/31 06:11:04;;;;;;;5.70;4.77;;;5.60;93.60;;;;;;5095086;28;20440;-79
2020/12/31 06:13:37;;;;;;;4.20;3.80;;;5.60;93.80;;;;;;5095515;28;20447;-80
2020/12/31 06:16:05;;;;;;;5.97;4.43;;;5.60;93.80;;;;;;5094885;28;20913;-79
2020/12/31 06:18:33;;;;;;;4.53;4.03;;;5.60;93.70;;;;;;5094572;28;20464;-80
2020/12/31 06:21:01;;;;;;;5.33;4.47;;;5.60;93.70;;;;;;5094634;28;20452;-79
2020/12/31 06:23:36;;;;;;;5.47;3.63;;;5.60;93.70;;;;;;5094741;28;20491;-80
2020/12/31 06:26:13;;;;;;;4.43;3.13;;;5.50;93.70;;;;;;5094761;28;20469;-79
2020/12/31 06:28:46;;;;;;;3.47;3.00;;;5.50;94.10;;;;;;5094756;28;20524;-80
2020/12/31 06:31:13;;;;;;;4.40;2.90;;;5.50;93.70;;;;;;5094678;28;20428;-79
2020/12/31 06:33:46;;;;;;;3.03;2.77;;;5.50;93.60;;;;;;5094648;28;20447;-79
2020/12/31 06:36:13;;;;;;;2.57;2.37;;;5.50;93.60;;;;;;5094558;28;20775;-79
2020/12/31 06:38:42;;;;;;;6.07;2.87;;;5.50;93.60;;;;;;5097236;28;20573;-79
2020/12/31 06:41:38;;;;;;;3.40;3.10;;;5.60;93.80;;;;;;5098704;28;20451;-80
2020/12/31 06:44:08;;;;;;;3.97;2.60;;;5.60;93.80;;;;;;5100112;28;20437;-80
2020/12/31 06:46:43;;;;;;;2.63;2.43;;;5.60;93.80;;;;;;5098789;28;20451;-79
2020/12/31 06:49:09;;;;;;;2.87;2.33;;;5.60;93.50;;;;;;5101992;28;20531;-79
2020/12/31 06:51:36;;;;;;;2.77;2.27;;;5.60;93.80;;;;;;5098246;28;20455;-79
2020/12/31 06:54:02;;;;;;;2.10;1.90;;;5.60;93.50;;;;;;5098792;28;20960;-79
2020/12/31 06:56:43;;;;;;;2.47;2.20;;;5.60;93.40;;;;;;5099215;28;20444;-79
2020/12/31 06:59:30;;;;;;;3.47;2.30;;;5.60;93.50;;;;;;5105834;28;20469;-80
2020/12/31 07:01:58;;;;;;;2.23;2.00;;;5.60;93.60;;;;;;5110675;28;20423;-80
2020/12/31 07:04:28;;;;;;;2.20;2.00;;;5.70;93.60;;;;;;5109645;28;20485;-80
2020/12/31 07:06:55;;;;;;;2.90;2.70;;;5.70;93.70;;;;;;5109688;28;20460;-80
2020/12/31 07:09:35;;;;;;;3.10;2.73;;;5.70;93.70;;;;;;5109106;28;20471;-81
2020/12/31 07:12:04;;;;;;;3.10;2.90;;;5.80;93.90;;;;;;5109413;28;20511;-80
2020/12/31 07:14:31;;;;;;;2.57;2.33;;;5.80;93.90;;;;;;5109441;28;20444;-80
2020/12/31 07:17:06;;;;;;;4.87;3.07;;;5.80;93.80;;;;;;5108320;28;20471;-80
2020/12/31 07:19:40;;;;;;;4.03;3.27;;;5.90;93.80;;;;;;5109839;28;20764;-80
2020/12/31 07:22:21;;;;;;;4.23;3.77;;;5.90;93.80;;;;;;5109223;28;20454;-80
2020/12/31 07:24:50;;;;;;;3.63;3.30;;;5.90;93.70;;;;;;5108983;28;20490;-80
2020/12/31 07:27:29;;;;;;;3.70;3.40;;;5.90;93.70;;;;;;5108745;28;20467;-80
2020/12/31 07:30:13;;;;;;;3.83;3.30;;;5.90;93.70;;;;;;5109311;28;20408;-80
2020/12/31 07:32:51;;;;;;;5.47;3.73;;;5.90;93.60;;;;;;5108831;28;20436;-80
2020/12/31 07:35:22;;;;;;;4.33;3.77;;;5.90;93.60;;;;;;5109403;28;20447;-80
2020/12/31 07:37:51;;;;;;;6.07;4.50;;;5.90;93.60;;;;;;5108778;28;20486;-80
2020/12/31 07:40:34;;;;;;;4.90;3.70;;;5.90;93.60;;;;;;5108084;28;20921;-80
2020/12/31 07:43:01;;;;;;;4.30;3.33;;;5.90;93.40;;;;;;5101476;28;20424;-79
2020/12/31 07:45:29;;;;;;;3.53;3.23;;;6.00;93.30;;;;;;5097281;28;20546;-79
2020/12/31 07:47:56;;;;;;;4.17;3.77;;;5.90;93.20;;;;;;5097398;28;20906;-79
2020/12/31 07:50:23;;;;;;;4.10;3.33;;;5.90;93.30;;;;;;5096870;28;20465;-79
2020/12/31 07:52:50;;;;;;;4.57;4.00;;;5.90;93.30;;;;;;5097209;28;20451;-79
2020/12/31 07:55:17;;;;;;;3.60;3.23;;;5.90;93.10;;;;;;5097337;28;20443;-79
2020/12/31 07:57:43;;;;;;;4.20;3.80;;;5.90;93.20;;;;;;5097328;28;20872;-79
2020/12/31 08:00:13;;;;;;;4.33;3.93;;;5.90;93.30;;;;;;5097035;28;20488;-79
2020/12/31 08:02:44;;;;;;;4.37;3.80;;;5.90;93.30;;;;;;5097437;28;20462;-78
2020/12/31 08:05:12;;;;;;;4.03;3.60;;;5.90;93.40;;;;;;5097196;28;20516;-78
2020/12/31 08:07:39;;;;;;;4.83;4.43;;;5.90;93.30;;;;;;5097565;28;20483;-78
2020/12/31 08:10:05;;;;;;;4.67;3.67;;;5.90;93.40;;;;;;5097068;28;20545;-79
2020/12/31 08:12:33;;;;;;;4.40;4.00;;;5.90;93.50;;;;;;5097698;28;20497;-78
2020/12/31 08:14:59;;;;;;;5.80;4.97;;;5.90;93.50;;;;;;5097456;28;20446;-78
2020/12/31 08:17:25;;;;;;;5.57;5.07;;;5.90;93.30;;;;;;5097403;28;20513;-79
2020/12/31 08:19:52;;;;;;;6.70;6.00;;;5.90;93.30;;;;;;5098593;28;20816;-78
2020/12/31 08:22:25;;;;;;;6.83;6.20;;;5.90;93.20;;;;;;5097461;28;20448;-79
2020/12/31 08:24:59;;;;;;;6.50;5.90;;;5.80;93.10;;;;;;5097239;28;20443;-78
2020/12/31 08:27:27;;;;;;;7.63;6.53;;;5.80;93.00;;;;;;5097558;28;20512;-79
2020/12/31 08:29:54;;;;;;;9.03;6.47;;;5.80;93.00;;;;;;5097646;28;20443;-78
2020/12/31 08:32:26;;;;;;;10.73;7.53;;;5.80;93.00;;;;;;5098204;28;20458;-78
2020/12/31 08:34:55;;;;;;;10.67;7.23;;;5.80;93.10;;;;;;5097442;28;20822;-78
2020/12/31 08:37:24;;;;;;;9.30;7.97;;;5.80;93.20;;;;;;5097585;28;20589;-78
2020/12/31 08:39:51;;;;;;;7.40;6.70;;;5.80;93.30;;;;;;5097934;28;20840;-77
2020/12/31 08:42:20;;;;;;;7.83;7.03;;;5.80;93.50;;;;;;5097389;28;20937;-78
2020/12/31 08:44:55;;;;;;;6.90;6.17;;;5.80;93.60;;;;;;5097929;28;20440;-78
2020/12/31 08:47:23;;;;;;;7.80;6.90;;;5.90;93.40;;;;;;5098102;28;20467;-78
2020/12/31 08:49:55;;;;;;;7.40;6.70;;;5.90;93.10;;;;;;5097471;28;20814;-78
2020/12/31 08:52:28;;;;;;;6.60;5.90;;;5.90;93.20;;;;;;5097663;28;20439;-78
2020/12/31 08:55:10;;;;;;;8.30;7.30;;;6.00;93.20;;;;;;5097231;28;20428;-78
2020/12/31 08:57:36;;;;;;;7.20;5.70;;;6.00;93.20;;;;;;5097405;28;20478;-78
2020/12/31 09:00:04;;;;;;;7.80;7.00;;;6.10;93.20;;;;;;5097007;28;20448;-78
2020/12/31 09:02:30;;;;;;;7.77;6.97;;;6.20;93.10;;;;;;5097212;28;20447;-78
2020/12/31 09:05:13;;;;;;;7.27;6.53;;;6.20;93.10;;;;;;5099138;28;20948;-78
2020/12/31 09:07:41;;;;;;;8.53;7.70;;;6.20;93.00;;;;;;5098912;28;20490;-78
2020/12/31 09:10:15;;;;;;;7.80;7.03;;;6.30;92.90;;;;;;5100108;28;20435;-78
2020/12/31 09:12:41;;;;;;;8.10;7.30;;;6.30;92.80;;;;;;5098056;28;20522;-77
2020/12/31 09:15:07;;;;;;;8.10;7.30;;;6.30;92.70;;;;;;5097379;28;20898;-78
2020/12/31 09:17:34;;;;;;;8.30;7.50;;;6.40;92.70;;;;;;5097808;28;20847;-77
2020/12/31 09:20:00;;;;;;;7.93;7.13;;;6.40;92.70;;;;;;5096988;28;20451;-78
2020/12/31 09:22:27;;;;;;;8.07;7.27;;;6.40;92.70;;;;;;5096551;28;20475;-78
2020/12/31 09:24:54;;;;;;;8.70;7.80;;;6.40;92.70;;;;;;5096449;28;20952;-77
2020/12/31 09:27:25;;;;;;;7.73;7.00;;;6.40;92.60;;;;;;5096345;28;20475;-77
2020/12/31 09:29:58;;;;;;;9.40;7.13;;;6.50;92.40;;;;;;5097030;28;20969;-78
2020/12/31 09:32:24;;;;;;;8.33;7.43;;;6.50;92.30;;;;;;5096919;28;20435;-78
2020/12/31 09:34:51;;;;;;;8.03;7.00;;;6.50;92.30;;;;;;5096301;28;20799;-77
2020/12/31 09:37:17;;;;;;;10.20;7.53;;;6.50;92.20;;;;;;5094718;28;20467;-79
2020/12/31 09:39:43;;;;;;;7.87;7.07;;;6.50;92.20;;;;;;5097024;28;20424;-78
2020/12/31 09:42:10;;;;;;;9.60;7.60;;;6.50;92.20;;;;;;5095845;28;20432;-78
2020/12/31 09:44:37;;;;;;;9.37;7.90;;;6.60;92.20;;;;;;5095909;28;20501;-78
2020/12/31 09:47:03;;;;;;;9.07;8.13;;;6.60;92.20;;;;;;5096085;28;20835;-77
2020/12/31 09:49:30;;;;;;;10.00;8.67;;;6.60;92.20;;;;;;5095475;28;20475;-77
2020/12/31 09:51:56;;;;;;;9.20;7.97;;;6.70;92.30;;;;;;5095847;28;20444;-77
2020/12/31 09:54:22;;;;;;;9.53;8.30;;;6.70;92.20;;;;;;5095755;28;20440;-77
2020/12/31 09:56:48;;;;;;;9.93;8.30;;;6.70;92.20;;;;;;5095377;28;20467;-77
2020/12/31 09:59:15;;;;;;;10.57;8.50;;;6.70;92.10;;;;;;5095925;28;20497;-77
2020/12/31 10:01:42;;;;;;;9.63;7.60;;;6.80;92.10;;;;;;5095495;28;20439;-77
2020/12/31 10:04:08;;;;;;;10.33;8.63;;;6.80;92.10;;;;;;5095769;28;20459;-77
2020/12/31 10:06:34;;;;;;;9.23;8.30;;;6.80;92.00;;;;;;5095091;28;20840;-77
2020/12/31 10:09:01;;;;;;;10.03;9.03;;;6.80;91.90;;;;;;5095637;28;20480;-78
2020/12/31 10:11:28;;;;;;;9.67;7.97;;;6.90;92.00;;;;;;5095093;28;20440;-78
2020/12/31 10:13:55;;;;;;;8.93;8.03;;;6.80;91.60;;;;;;5094801;28;20795;-77
2020/12/31 10:16:22;;;;;;;10.00;7.40;;;6.80;91.30;;;;;;5095826;28;20439;-78
2020/12/31 10:18:48;;;;;;;10.90;7.60;;;6.80;91.30;;;;;;5094765;28;20448;-77
2020/12/31 10:21:14;;;;;;;8.40;6.00;;;6.70;91.40;;;;;;5095553;28;20470;-77
2020/12/31 10:23:40;;;;;;;4.97;4.43;;;6.70;91.20;;;;;;5094174;28;20439;-77
2020/12/31 10:26:06;;;;;;;5.13;4.63;;;6.70;90.80;;;;;;5094778;28;20455;-77
2020/12/31 10:28:33;;;;;;;4.63;4.20;;;6.60;90.90;;;;;;5094176;28;20479;-77
2020/12/31 10:30:59;;;;;;;5.50;5.00;;;6.60;91.00;;;;;;5094536;28;20428;-77
2020/12/31 10:33:26;;;;;;;5.50;3.70;;;6.60;91.20;;;;;;5094872;28;20491;-77
2020/12/31 10:35:53;;;;;;;4.80;4.30;;;6.60;91.10;;;;;;5095012;28;20799;-77
2020/12/31 10:38:19;;;;;;;3.77;3.47;;;6.60;91.10;;;;;;5094480;28;20474;-77
2020/12/31 10:40:45;;;;;;;4.20;3.80;;;6.60;91.10;;;;;;5094449;28;20451;-77
2020/12/31 10:43:11;;;;;;;5.07;4.40;;;6.60;91.10;;;;;;5094751;28;20436;-77
2020/12/31 10:45:37;;;;;;;5.17;4.60;;;6.60;91.20;;;;;;5094645;28;20439;-77
2020/12/31 10:48:07;;;;;;;4.43;3.93;;;6.60;91.40;;;;;;5094535;28;20483;-77
2020/12/31 10:50:34;;;;;;;4.50;3.93;;;6.60;91.40;;;;;;5094394;28;20439;-77
2020/12/31 10:53:00;;;;;;;3.10;2.90;;;6.60;91.20;;;;;;5094045;28;20454;-77
2020/12/31 10:55:28;;;;;;;4.60;4.20;;;6.60;91.00;;;;;;5094409;28;20447;-77
2020/12/31 10:57:55;;;;;;;4.80;4.30;;;6.50;91.00;;;;;;5094322;28;20562;-77
2020/12/31 11:00:21;;;;;;;5.23;4.73;;;6.50;91.30;;;;;;5094749;28;20447;-78
2020/12/31 11:02:48;;;;;;;4.70;4.30;;;6.50;91.20;;;;;;5098319;28;20826;-78
2020/12/31 11:05:14;;;;;;;5.00;4.60;;;6.40;91.40;;;;;;5095972;28;20467;-77
2020/12/31 11:07:41;;;;;;;4.00;3.70;;;6.40;91.60;;;;;;5094372;28;21018;-77
2020/12/31 11:10:07;;;;;;;3.80;3.50;;;6.50;91.60;;;;;;5094841;28;20440;-77
2020/12/31 11:12:33;;;;;;;3.37;3.07;;;6.50;91.70;;;;;;5094616;28;20454;-77
2020/12/31 11:15:00;;;;;;;4.43;3.00;;;6.50;91.50;;;;;;5093987;28;20837;-77
2020/12/31 11:17:26;;;;;;;3.53;3.23;;;6.50;91.70;;;;;;5094687;28;20499;-78
2020/12/31 11:19:52;;;;;;;3.63;3.23;;;6.50;91.40;;;;;;5094103;28;20462;-77
2020/12/31 11:22:18;;;;;;;3.20;3.00;;;6.50;91.20;;;;;;5094584;28;20906;-77
2020/12/31 11:24:45;;;;;;;3.63;3.33;;;6.60;91.40;;;;;;5095853;28;20451;-77
2020/12/31 11:27:12;;;;;;;3.17;2.33;;;6.70;91.40;;;;;;5098514;28;20834;-77
2020/12/31 11:29:38;;;;;;;2.67;2.47;;;6.80;91.10;;;;;;5098551;28;20479;-77
2020/12/31 11:32:04;;;;;;;3.03;2.73;;;7.00;90.90;;;;;;5098087;28;20941;-77
2020/12/31 11:34:30;;;;;;;2.90;2.60;;;7.10;90.60;;;;;;5098861;28;20458;-77
2020/12/31 11:36:56;;;;;;;3.20;2.27;;;7.10;90.30;;;;;;5098347;28;20470;-77
2020/12/31 11:39:23;;;;;;;2.60;2.40;;;7.10;90.30;;;;;;5098497;28;20448;-77
2020/12/31 11:41:55;;;;;;;2.10;2.00;;;7.10;90.20;;;;;;5098995;28;20866;-77
2020/12/31 11:44:21;;;;;;;3.50;3.20;;;7.10;90.30;;;;;;5100959;28;20419;-78
2020/12/31 11:46:49;;;;;;;3.13;2.83;;;7.10;90.40;;;;;;5099680;28;20475;-77
2020/12/31 11:49:15;;;;;;;3.23;2.93;;;7.20;90.40;;;;;;5097973;28;20471;-77
2020/12/31 11:51:42;;;;;;;2.60;2.40;;;7.20;90.40;;;;;;5097596;28;20428;-77
2020/12/31 11:54:08;;;;;;;2.73;2.53;;;7.10;90.20;;;;;;5097889;28;20789;-77
2020/12/31 11:56:34;;;;;;;10.23;2.13;;;7.10;90.00;;;;;;5097281;28;20447;-77
2020/12/31 11:59:01;;;;;;;2.23;2.03;;;7.10;89.70;;;;;;5098404;28;20443;-77
2020/12/31 12:01:28;;;;;;;3.40;2.77;;;7.00;89.60;;;;;;5098354;28;20447;-77
2020/12/31 12:03:54;;;;;;;3.00;2.43;;;6.90;90.00;;;;;;5097352;28;20816;-77
2020/12/31 12:06:20;;;;;;;1.63;1.53;;;6.90;90.30;;;;;;5097394;28;20440;-77
2020/12/31 12:08:46;;;;;;;2.47;2.27;;;6.80;90.30;;;;;;5097033;28;20475;-77
2020/12/31 12:11:12;;;;;;;2.90;2.30;;;6.70;90.20;;;;;;5096772;28;20938;-77
2020/12/31 12:13:39;;;;;;;3.17;2.90;;;6.70;90.20;;;;;;5097938;28;20440;-77
2020/12/31 12:16:06;;;;;;;3.03;2.67;;;6.70;90.40;;;;;;5097542;28;20447;-78
2020/12/31 12:18:33;;;;;;;3.07;2.60;;;6.60;90.60;;;;;;5097641;28;20460;-77
2020/12/31 12:20:59;;;;;;;2.53;2.00;;;6.60;90.60;;;;;;5097506;28;20440;-77
2020/12/31 12:23:25;;;;;;;3.70;2.80;;;6.60;90.70;;;;;;5097633;28;20448;-77
2020/12/31 12:25:51;;;;;;;2.70;2.47;;;6.70;90.80;;;;;;5097912;28;20436;-77
2020/12/31 12:28:17;;;;;;;3.97;3.10;;;6.70;90.50;;;;;;5097275;28;20866;-77
2020/12/31 12:30:44;;;;;;;3.00;2.70;;;6.60;90.50;;;;;;5097160;28;20450;-77
2020/12/31 12:33:11;;;;;;;5.90;3.00;;;6.60;90.60;;;;;;5097699;28;20440;-77
2020/12/31 12:35:37;;;;;;;5.63;3.57;;;6.60;90.70;;;;;;5096961;28;20454;-77
2020/12/31 12:38:07;;;;;;;4.67;4.20;;;6.60;90.80;;;;;;5097031;28;20463;-77
2020/12/31 12:40:33;;;;;;;3.97;3.67;;;6.60;90.90;;;;;;5097054;28;20436;-77
2020/12/31 12:42:59;;;;;;;4.40;4.00;;;6.60;90.80;;;;;;5097193;28;20960;-77
2020/12/31 12:45:25;;;;;;;7.53;4.57;;;6.70;90.90;;;;;;5098029;28;20443;-79
2020/12/31 12:47:52;;;;;;;7.30;4.50;;;6.70;90.90;;;;;;5100918;28;20460;-78
2020/12/31 12:50:19;;;;;;;5.73;4.10;;;6.70;90.80;;;;;;5100921;28;20447;-78
2020/12/31 12:52:45;;;;;;;3.73;3.33;;;6.70;90.90;;;;;;5100817;28;20812;-78
2020/12/31 12:55:11;;;;;;;6.90;5.10;;;6.70;91.00;;;;;;5099076;28;20455;-78
2020/12/31 12:57:37;;;;;;;6.10;3.90;;;6.70;91.00;;;;;;5098530;28;20468;-78